Other Surface Observations
Issued by NWS Great Falls, MT

Home | Current Version | Previous Version | Text Only | Print | Product List | Glossary On
Versions: 1 2 3 4 5 6 7 8 9 10 11 12 13 14 15 16 17 18 19 20 21 22 23 24 25 26 27 28 29 30 31 32 33 34 35 36 37 38 39 40 41 42 43 44 45 46 47 48 49 50
000
SXUS55 KTFX 300844
OSOTFX
AREA AWOS OBSERVATIONS
NATIONAL WEATHER SERVICE GREAT FALLS MT
0244 AM MDT FRI SEP 30 2016

METAR KPWD 300845Z AUTO 10010KT 10SM 13/06 A3004 RMK PLENTYWOOD
METAR KPO1 300845Z AUTO 07006KT 10SM 16/07 A3000 RMK POPLAR
METAR K1S3 300845Z AUTO 00000KT 10SM 17/12 A2997 RMK FORSYTH
METAR KS71 300845Z AUTO 24003KT 10SM 09/09 A2996 RMK CHINOOK
METAR K38S 300845Z AUTO 22007KT 10SM 13/07 A3012 RMK DEER LODGE
METAR K3U3 300845Z AUTO 18009G15KT 10SM 14/06 A3011 RMK ANACONDA
METAR K6S5 300845Z AUTO 17011KT 10SM 18/07 A3004 RMK HAMILTON
METAR KS59 300845Z AUTO 19004KT 10SM 13/09 A3000 RMK LIBBY
METAR K88M 300845Z AUTO 06005KT 10SM 08/06 A3001 RMK EUREKA



USA.gov is the U.S. government's official web portal to all federal, state and local government web resources and services.